sensor_id;sensor_type;location;lat;lon;timestamp;P1;durP1;ratioP1;P2;durP2;ratioP2
33696;SDS011;20031;43.416;23.232;2023-05-10T00:01:15;14.63;;;7.65;;
33696;SDS011;20031;43.416;23.232;2023-05-10T00:03:41;17.35;;;7.60;;
33696;SDS011;20031;43.416;23.232;2023-05-10T00:06:06;12.82;;;7.70;;
33696;SDS011;20031;43.416;23.232;2023-05-10T00:08:32;12.05;;;7.78;;
33696;SDS011;20031;43.416;23.232;2023-05-10T00:10:57;18.63;;;7.45;;
33696;SDS011;20031;43.416;23.232;2023-05-10T00:13:23;17.98;;;8.30;;
33696;SDS011;20031;43.416;23.232;2023-05-10T00:15:48;15.20;;;8.43;;
33696;SDS011;20031;43.416;23.232;2023-05-10T00:18:13;14.57;;;9.30;;
33696;SDS011;20031;43.416;23.232;2023-05-10T00:20:39;13.25;;;8.70;;
33696;SDS011;20031;43.416;23.232;2023-05-10T00:23:04;16.67;;;8.32;;
33696;SDS011;20031;43.416;23.232;2023-05-10T00:25:30;12.02;;;7.82;;
33696;SDS011;20031;43.416;23.232;2023-05-10T00:27:55;14.68;;;8.13;;
33696;SDS011;20031;43.416;23.232;2023-05-10T00:30:22;18.40;;;7.97;;
33696;SDS011;20031;43.416;23.232;2023-05-10T00:32:47;12.23;;;7.82;;
33696;SDS011;20031;43.416;23.232;2023-05-10T00:35:14;11.93;;;8.13;;
33696;SDS011;20031;43.416;23.232;2023-05-10T00:37:40;14.88;;;8.07;;
33696;SDS011;20031;43.416;23.232;2023-05-10T00:40:06;16.05;;;8.18;;
33696;SDS011;20031;43.416;23.232;2023-05-10T00:42:32;10.95;;;8.20;;
33696;SDS011;20031;43.416;23.232;2023-05-10T00:44:57;13.18;;;8.38;;
33696;SDS011;20031;43.416;23.232;2023-05-10T00:47:23;10.32;;;8.00;;
33696;SDS011;20031;43.416;23.232;2023-05-10T00:49:48;12.25;;;7.97;;
33696;SDS011;20031;43.416;23.232;2023-05-10T00:52:14;14.45;;;7.72;;
33696;SDS011;20031;43.416;23.232;2023-05-10T00:54:40;12.10;;;7.57;;
33696;SDS011;20031;43.416;23.232;2023-05-10T00:57:06;16.13;;;7.95;;
33696;SDS011;20031;43.416;23.232;2023-05-10T00:59:32;15.10;;;8.00;;
33696;SDS011;20031;43.416;23.232;2023-05-10T01:01:58;15.30;;;7.32;;
33696;SDS011;20031;43.416;23.232;2023-05-10T01:04:23;15.80;;;7.68;;
33696;SDS011;20031;43.416;23.232;2023-05-10T01:06:50;10.52;;;7.20;;
33696;SDS011;20031;43.416;23.232;2023-05-10T01:09:16;14.13;;;7.68;;
33696;SDS011;20031;43.416;23.232;2023-05-10T01:11:43;17.00;;;7.32;;
33696;SDS011;20031;43.416;23.232;2023-05-10T01:14:08;13.40;;;7.70;;
33696;SDS011;20031;43.416;23.232;2023-05-10T01:16:36;13.60;;;7.45;;
33696;SDS011;20031;43.416;23.232;2023-05-10T01:19:04;16.38;;;7.38;;
33696;SDS011;20031;43.416;23.232;2023-05-10T01:21:33;14.88;;;7.80;;
33696;SDS011;20031;43.416;23.232;2023-05-10T01:29:33;14.32;;;6.70;;
33696;SDS011;20031;43.416;23.232;2023-05-10T01:35:00;11.43;;;6.65;;
33696;SDS011;20031;43.416;23.232;2023-05-10T01:37:40;12.18;;;6.55;;
33696;SDS011;20031;43.416;23.232;2023-05-10T01:40:30;10.05;;;5.93;;
33696;SDS011;20031;43.416;23.232;2023-05-10T01:43:02;10.75;;;6.20;;
33696;SDS011;20031;43.416;23.232;2023-05-10T01:48:06;9.98;;;6.57;;
33696;SDS011;20031;43.416;23.232;2023-05-10T01:50:34;14.27;;;7.03;;
33696;SDS011;20031;43.416;23.232;2023-05-10T01:53:02;12.20;;;6.00;;
33696;SDS011;20031;43.416;23.232;2023-05-10T01:55:32;8.27;;;5.78;;
33696;SDS011;20031;43.416;23.232;2023-05-10T01:58:10;11.00;;;5.85;;
33696;SDS011;20031;43.416;23.232;2023-05-10T02:00:48;9.73;;;5.22;;
33696;SDS011;20031;43.416;23.232;2023-05-10T02:03:15;8.80;;;5.55;;
33696;SDS011;20031;43.416;23.232;2023-05-10T02:05:43;12.23;;;5.75;;
33696;SDS011;20031;43.416;23.232;2023-05-10T02:08:11;6.70;;;4.90;;
33696;SDS011;20031;43.416;23.232;2023-05-10T02:10:40;13.23;;;5.75;;
33696;SDS011;20031;43.416;23.232;2023-05-10T02:13:07;7.18;;;5.13;;
33696;SDS011;20031;43.416;23.232;2023-05-10T02:15:35;9.15;;;4.90;;
33696;SDS011;20031;43.416;23.232;2023-05-10T02:18:03;12.10;;;5.47;;
33696;SDS011;20031;43.416;23.232;2023-05-10T02:20:31;11.48;;;5.50;;
33696;SDS011;20031;43.416;23.232;2023-05-10T02:22:57;10.27;;;7.15;;
33696;SDS011;20031;43.416;23.232;2023-05-10T02:25:24;9.40;;;6.13;;
33696;SDS011;20031;43.416;23.232;2023-05-10T02:27:51;10.25;;;6.10;;
33696;SDS011;20031;43.416;23.232;2023-05-10T02:30:20;17.52;;;5.97;;
33696;SDS011;20031;43.416;23.232;2023-05-10T02:32:47;14.35;;;5.85;;
33696;SDS011;20031;43.416;23.232;2023-05-10T02:35:15;49.92;;;9.43;;
33696;SDS011;20031;43.416;23.232;2023-05-10T02:37:41;31.02;;;6.38;;
33696;SDS011;20031;43.416;23.232;2023-05-10T02:40:08;13.13;;;5.95;;
33696;SDS011;20031;43.416;23.232;2023-05-10T02:42:37;10.93;;;5.03;;
33696;SDS011;20031;43.416;23.232;2023-05-10T02:45:14;15.85;;;6.20;;
33696;SDS011;20031;43.416;23.232;2023-05-10T02:47:42;9.68;;;5.32;;
33696;SDS011;20031;43.416;23.232;2023-05-10T02:50:08;14.50;;;5.82;;
33696;SDS011;20031;43.416;23.232;2023-05-10T02:52:47;10.82;;;5.88;;
33696;SDS011;20031;43.416;23.232;2023-05-10T02:55:19;8.98;;;5.15;;
33696;SDS011;20031;43.416;23.232;2023-05-10T02:57:58;18.38;;;5.05;;
33696;SDS011;20031;43.416;23.232;2023-05-10T03:00:25;11.60;;;5.47;;
33696;SDS011;20031;43.416;23.232;2023-05-10T03:02:51;12.88;;;5.75;;
33696;SDS011;20031;43.416;23.232;2023-05-10T03:05:17;27.95;;;6.20;;
33696;SDS011;20031;43.416;23.232;2023-05-10T03:07:43;27.55;;;7.38;;
33696;SDS011;20031;43.416;23.232;2023-05-10T03:10:09;19.83;;;6.88;;
33696;SDS011;20031;43.416;23.232;2023-05-10T03:18:20;14.80;;;6.25;;
33696;SDS011;20031;43.416;23.232;2023-05-10T03:20:48;25.38;;;9.13;;
33696;SDS011;20031;43.416;23.232;2023-05-10T03:25:44;48.63;;;16.08;;
33696;SDS011;20031;43.416;23.232;2023-05-10T03:28:13;62.58;;;20.20;;
33696;SDS011;20031;43.416;23.232;2023-05-10T03:30:40;30.08;;;11.30;;
33696;SDS011;20031;43.416;23.232;2023-05-10T03:33:07;17.58;;;6.88;;
33696;SDS011;20031;43.416;23.232;2023-05-10T03:35:33;29.75;;;8.57;;
33696;SDS011;20031;43.416;23.232;2023-05-10T03:37:59;19.77;;;6.53;;
33696;SDS011;20031;43.416;23.232;2023-05-10T03:40:25;23.23;;;7.35;;
33696;SDS011;20031;43.416;23.232;2023-05-10T03:42:54;14.73;;;7.38;;
33696;SDS011;20031;43.416;23.232;2023-05-10T03:45:20;35.10;;;11.02;;
33696;SDS011;20031;43.416;23.232;2023-05-10T03:47:45;50.17;;;13.65;;
33696;SDS011;20031;43.416;23.232;2023-05-10T03:50:11;52.58;;;17.20;;
33696;SDS011;20031;43.416;23.232;2023-05-10T03:52:36;43.22;;;16.40;;
33696;SDS011;20031;43.416;23.232;2023-05-10T03:55:04;41.08;;;11.93;;
33696;SDS011;20031;43.416;23.232;2023-05-10T03:57:30;26.55;;;9.07;;
33696;SDS011;20031;43.416;23.232;2023-05-10T03:59:55;38.47;;;16.73;;
33696;SDS011;20031;43.416;23.232;2023-05-10T04:02:21;30.42;;;15.95;;
33696;SDS011;20031;43.416;23.232;2023-05-10T04:04:46;25.30;;;16.48;;
33696;SDS011;20031;43.416;23.232;2023-05-10T04:07:12;26.73;;;14.80;;
33696;SDS011;20031;43.416;23.232;2023-05-10T04:09:37;41.30;;;21.05;;
33696;SDS011;20031;43.416;23.232;2023-05-10T04:12:02;47.53;;;22.38;;
33696;SDS011;20031;43.416;23.232;2023-05-10T04:14:28;53.30;;;15.85;;
33696;SDS011;20031;43.416;23.232;2023-05-10T04:16:54;34.25;;;17.65;;
33696;SDS011;20031;43.416;23.232;2023-05-10T04:19:20;38.95;;;20.23;;
33696;SDS011;20031;43.416;23.232;2023-05-10T04:21:45;19.73;;;11.43;;
33696;SDS011;20031;43.416;23.232;2023-05-10T04:24:11;33.22;;;16.92;;
33696;SDS011;20031;43.416;23.232;2023-05-10T04:26:37;27.63;;;15.48;;
33696;SDS011;20031;43.416;23.232;2023-05-10T04:29:02;30.20;;;14.40;;
33696;SDS011;20031;43.416;23.232;2023-05-10T04:31:27;21.83;;;11.73;;
33696;SDS011;20031;43.416;23.232;2023-05-10T04:33:53;25.27;;;16.55;;
33696;SDS011;20031;43.416;23.232;2023-05-10T04:36:18;28.90;;;18.02;;
33696;SDS011;20031;43.416;23.232;2023-05-10T04:38:44;25.55;;;15.73;;
33696;SDS011;20031;43.416;23.232;2023-05-10T04:41:09;19.67;;;13.52;;
33696;SDS011;20031;43.416;23.232;2023-05-10T04:43:36;25.10;;;17.00;;
33696;SDS011;20031;43.416;23.232;2023-05-10T04:46:02;23.05;;;15.20;;
33696;SDS011;20031;43.416;23.232;2023-05-10T04:48:28;17.75;;;12.43;;
33696;SDS011;20031;43.416;23.232;2023-05-10T04:50:53;30.63;;;20.27;;
33696;SDS011;20031;43.416;23.232;2023-05-10T04:53:19;35.75;;;18.95;;
33696;SDS011;20031;43.416;23.232;2023-05-10T04:55:44;29.55;;;15.77;;
33696;SDS011;20031;43.416;23.232;2023-05-10T04:58:10;36.13;;;19.00;;
33696;SDS011;20031;43.416;23.232;2023-05-10T05:00:35;47.00;;;23.02;;
33696;SDS011;20031;43.416;23.232;2023-05-10T05:03:01;41.63;;;17.77;;
33696;SDS011;20031;43.416;23.232;2023-05-10T05:05:26;20.80;;;10.32;;
33696;SDS011;20031;43.416;23.232;2023-05-10T05:07:52;27.27;;;11.55;;
33696;SDS011;20031;43.416;23.232;2023-05-10T05:10:17;47.17;;;14.27;;
33696;SDS011;20031;43.416;23.232;2023-05-10T05:12:42;26.77;;;10.23;;
33696;SDS011;20031;43.416;23.232;2023-05-10T05:15:09;29.60;;;11.35;;
33696;SDS011;20031;43.416;23.232;2023-05-10T05:17:35;30.95;;;11.23;;
33696;SDS011;20031;43.416;23.232;2023-05-10T05:20:01;35.33;;;15.63;;
33696;SDS011;20031;43.416;23.232;2023-05-10T05:22:26;34.83;;;20.27;;
33696;SDS011;20031;43.416;23.232;2023-05-10T05:24:56;32.45;;;18.65;;
33696;SDS011;20031;43.416;23.232;2023-05-10T05:27:23;36.55;;;23.13;;
33696;SDS011;20031;43.416;23.232;2023-05-10T05:29:52;38.65;;;23.08;;
33696;SDS011;20031;43.416;23.232;2023-05-10T05:32:18;33.08;;;17.50;;
33696;SDS011;20031;43.416;23.232;2023-05-10T05:34:46;31.42;;;18.52;;
33696;SDS011;20031;43.416;23.232;2023-05-10T05:37:13;39.22;;;22.45;;
33696;SDS011;20031;43.416;23.232;2023-05-10T05:39:39;34.80;;;17.60;;
33696;SDS011;20031;43.416;23.232;2023-05-10T05:42:04;32.08;;;18.17;;
33696;SDS011;20031;43.416;23.232;2023-05-10T05:44:30;43.75;;;22.30;;
33696;SDS011;20031;43.416;23.232;2023-05-10T05:46:55;33.85;;;18.05;;
33696;SDS011;20031;43.416;23.232;2023-05-10T05:49:21;28.48;;;17.10;;
33696;SDS011;20031;43.416;23.232;2023-05-10T05:51:46;34.08;;;16.35;;
33696;SDS011;20031;43.416;23.232;2023-05-10T05:54:14;39.95;;;14.30;;
33696;SDS011;20031;43.416;23.232;2023-05-10T05:56:39;43.30;;;17.92;;
33696;SDS011;20031;43.416;23.232;2023-05-10T05:59:04;47.47;;;14.68;;
33696;SDS011;20031;43.416;23.232;2023-05-10T06:01:30;23.35;;;10.50;;
33696;SDS011;20031;43.416;23.232;2023-05-10T06:03:55;23.55;;;11.48;;
33696;SDS011;20031;43.416;23.232;2023-05-10T06:06:21;19.75;;;9.13;;
33696;SDS011;20031;43.416;23.232;2023-05-10T06:08:46;21.42;;;10.75;;
33696;SDS011;20031;43.416;23.232;2023-05-10T06:11:11;26.27;;;10.02;;
33696;SDS011;20031;43.416;23.232;2023-05-10T06:13:37;20.35;;;10.35;;
33696;SDS011;20031;43.416;23.232;2023-05-10T06:16:02;29.25;;;16.88;;
33696;SDS011;20031;43.416;23.232;2023-05-10T06:18:28;19.38;;;10.75;;
33696;SDS011;20031;43.416;23.232;2023-05-10T06:20:53;17.00;;;10.05;;
33696;SDS011;20031;43.416;23.232;2023-05-10T06:23:19;17.30;;;8.88;;
33696;SDS011;20031;43.416;23.232;2023-05-10T06:25:44;26.70;;;13.25;;
33696;SDS011;20031;43.416;23.232;2023-05-10T06:28:10;15.10;;;9.00;;
33696;SDS011;20031;43.416;23.232;2023-05-10T06:30:36;13.98;;;8.73;;
33696;SDS011;20031;43.416;23.232;2023-05-10T06:33:02;14.73;;;9.02;;
33696;SDS011;20031;43.416;23.232;2023-05-10T06:35:28;18.45;;;8.63;;
33696;SDS011;20031;43.416;23.232;2023-05-10T06:37:53;18.10;;;9.13;;
33696;SDS011;20031;43.416;23.232;2023-05-10T06:40:19;16.95;;;8.57;;
33696;SDS011;20031;43.416;23.232;2023-05-10T06:42:45;36.47;;;16.45;;
33696;SDS011;20031;43.416;23.232;2023-05-10T06:45:11;39.92;;;22.33;;
33696;SDS011;20031;43.416;23.232;2023-05-10T06:47:37;27.17;;;16.58;;
33696;SDS011;20031;43.416;23.232;2023-05-10T06:50:03;33.97;;;21.02;;
33696;SDS011;20031;43.416;23.232;2023-05-10T06:52:28;29.52;;;15.57;;
33696;SDS011;20031;43.416;23.232;2023-05-10T06:54:54;28.15;;;17.88;;
33696;SDS011;20031;43.416;23.232;2023-05-10T06:57:19;26.40;;;14.00;;
33696;SDS011;20031;43.416;23.232;2023-05-10T06:59:45;21.70;;;8.82;;
33696;SDS011;20031;43.416;23.232;2023-05-10T07:02:11;19.70;;;12.18;;
33696;SDS011;20031;43.416;23.232;2023-05-10T07:04:36;21.85;;;10.55;;
33696;SDS011;20031;43.416;23.232;2023-05-10T07:07:02;22.95;;;9.52;;
33696;SDS011;20031;43.416;23.232;2023-05-10T07:09:27;22.58;;;9.05;;
33696;SDS011;20031;43.416;23.232;2023-05-10T07:11:53;32.63;;;12.30;;
33696;SDS011;20031;43.416;23.232;2023-05-10T07:14:18;21.77;;;11.32;;
33696;SDS011;20031;43.416;23.232;2023-05-10T07:16:44;19.27;;;9.20;;
33696;SDS011;20031;43.416;23.232;2023-05-10T07:19:09;12.05;;;7.57;;
33696;SDS011;20031;43.416;23.232;2023-05-10T07:21:35;19.77;;;9.30;;
33696;SDS011;20031;43.416;23.232;2023-05-10T07:24:01;13.15;;;7.00;;
33696;SDS011;20031;43.416;23.232;2023-05-10T07:26:26;39.75;;;10.25;;
33696;SDS011;20031;43.416;23.232;2023-05-10T07:28:52;20.05;;;8.68;;
33696;SDS011;20031;43.416;23.232;2023-05-10T07:31:17;17.60;;;7.82;;
33696;SDS011;20031;43.416;23.232;2023-05-10T07:33:43;18.52;;;8.00;;
33696;SDS011;20031;43.416;23.232;2023-05-10T07:36:08;19.60;;;10.30;;
33696;SDS011;20031;43.416;23.232;2023-05-10T07:38:34;32.42;;;10.52;;
33696;SDS011;20031;43.416;23.232;2023-05-10T07:40:59;20.88;;;12.68;;
33696;SDS011;20031;43.416;23.232;2023-05-10T07:43:25;14.00;;;8.10;;
33696;SDS011;20031;43.416;23.232;2023-05-10T07:45:50;21.52;;;7.95;;
33696;SDS011;20031;43.416;23.232;2023-05-10T07:48:18;22.20;;;8.60;;
33696;SDS011;20031;43.416;23.232;2023-05-10T07:50:44;15.23;;;8.13;;
33696;SDS011;20031;43.416;23.232;2023-05-10T07:53:09;31.48;;;19.13;;
33696;SDS011;20031;43.416;23.232;2023-05-10T07:55:35;29.27;;;13.45;;
33696;SDS011;20031;43.416;23.232;2023-05-10T07:58:01;21.70;;;9.07;;
33696;SDS011;20031;43.416;23.232;2023-05-10T08:00:26;23.20;;;8.60;;
33696;SDS011;20031;43.416;23.232;2023-05-10T08:02:52;13.35;;;7.65;;
33696;SDS011;20031;43.416;23.232;2023-05-10T08:05:18;14.57;;;7.50;;
33696;SDS011;20031;43.416;23.232;2023-05-10T08:07:44;13.68;;;7.30;;
33696;SDS011;20031;43.416;23.232;2023-05-10T08:10:09;13.23;;;7.75;;
33696;SDS011;20031;43.416;23.232;2023-05-10T08:12:36;17.73;;;7.45;;
33696;SDS011;20031;43.416;23.232;2023-05-10T08:15:02;35.00;;;13.63;;
33696;SDS011;20031;43.416;23.232;2023-05-10T08:17:28;36.53;;;17.02;;
33696;SDS011;20031;43.416;23.232;2023-05-10T08:19:54;20.20;;;14.15;;
33696;SDS011;20031;43.416;23.232;2023-05-10T08:22:19;21.83;;;12.82;;
33696;SDS011;20031;43.416;23.232;2023-05-10T08:24:45;21.73;;;9.80;;
33696;SDS011;20031;43.416;23.232;2023-05-10T08:27:10;17.77;;;8.98;;
33696;SDS011;20031;43.416;23.232;2023-05-10T08:29:36;16.25;;;8.25;;
33696;SDS011;20031;43.416;23.232;2023-05-10T08:32:02;9.25;;;6.97;;
33696;SDS011;20031;43.416;23.232;2023-05-10T08:34:28;15.98;;;7.28;;
33696;SDS011;20031;43.416;23.232;2023-05-10T08:36:53;14.38;;;9.95;;
33696;SDS011;20031;43.416;23.232;2023-05-10T08:39:19;30.00;;;15.23;;
33696;SDS011;20031;43.416;23.232;2023-05-10T08:41:45;17.77;;;8.80;;
33696;SDS011;20031;43.416;23.232;2023-05-10T08:44:12;32.13;;;11.20;;
33696;SDS011;20031;43.416;23.232;2023-05-10T08:46:40;13.40;;;7.32;;
33696;SDS011;20031;43.416;23.232;2023-05-10T08:49:10;15.55;;;7.60;;
33696;SDS011;20031;43.416;23.232;2023-05-10T08:51:43;14.40;;;7.47;;
33696;SDS011;20031;43.416;23.232;2023-05-10T08:54:19;9.82;;;6.30;;
33696;SDS011;20031;43.416;23.232;2023-05-10T08:56:46;10.35;;;6.13;;
33696;SDS011;20031;43.416;23.232;2023-05-10T08:59:12;15.50;;;7.00;;
33696;SDS011;20031;43.416;23.232;2023-05-10T09:01:38;9.13;;;6.03;;
33696;SDS011;20031;43.416;23.232;2023-05-10T09:04:05;11.48;;;7.20;;
33696;SDS011;20031;43.416;23.232;2023-05-10T09:06:31;9.82;;;5.32;;
33696;SDS011;20031;43.416;23.232;2023-05-10T09:08:57;8.02;;;5.70;;
33696;SDS011;20031;43.416;23.232;2023-05-10T09:11:23;8.25;;;6.05;;
33696;SDS011;20031;43.416;23.232;2023-05-10T09:13:49;12.85;;;5.85;;
33696;SDS011;20031;43.416;23.232;2023-05-10T09:16:17;11.65;;;6.10;;
33696;SDS011;20031;43.416;23.232;2023-05-10T09:18:42;11.20;;;6.30;;
33696;SDS011;20031;43.416;23.232;2023-05-10T09:21:08;17.80;;;5.88;;
33696;SDS011;20031;43.416;23.232;2023-05-10T09:23:35;10.52;;;5.97;;
33696;SDS011;20031;43.416;23.232;2023-05-10T09:26:06;12.02;;;6.78;;
33696;SDS011;20031;43.416;23.232;2023-05-10T09:28:49;13.13;;;5.05;;
33696;SDS011;20031;43.416;23.232;2023-05-10T09:31:16;13.73;;;7.07;;
33696;SDS011;20031;43.416;23.232;2023-05-10T09:33:45;12.93;;;7.55;;
33696;SDS011;20031;43.416;23.232;2023-05-10T09:36:12;15.30;;;6.68;;
33696;SDS011;20031;43.416;23.232;2023-05-10T09:38:50;7.38;;;5.47;;
33696;SDS011;20031;43.416;23.232;2023-05-10T09:41:17;14.27;;;5.15;;
33696;SDS011;20031;43.416;23.232;2023-05-10T09:43:49;11.45;;;4.32;;
33696;SDS011;20031;43.416;23.232;2023-05-10T09:46:15;8.68;;;4.20;;
33696;SDS011;20031;43.416;23.232;2023-05-10T09:48:47;10.68;;;4.10;;
33696;SDS011;20031;43.416;23.232;2023-05-10T09:51:20;9.85;;;4.25;;
33696;SDS011;20031;43.416;23.232;2023-05-10T09:53:46;13.00;;;4.10;;
33696;SDS011;20031;43.416;23.232;2023-05-10T09:56:12;10.10;;;3.85;;
33696;SDS011;20031;43.416;23.232;2023-05-10T09:58:37;6.38;;;3.92;;
33696;SDS011;20031;43.416;23.232;2023-05-10T10:01:03;6.18;;;3.72;;
33696;SDS011;20031;43.416;23.232;2023-05-10T10:03:28;9.50;;;4.00;;
33696;SDS011;20031;43.416;23.232;2023-05-10T10:05:55;10.82;;;3.88;;
33696;SDS011;20031;43.416;23.232;2023-05-10T10:08:21;8.85;;;3.90;;
33696;SDS011;20031;43.416;23.232;2023-05-10T10:10:46;10.88;;;4.40;;
33696;SDS011;20031;43.416;23.232;2023-05-10T10:13:12;12.35;;;4.32;;
33696;SDS011;20031;43.416;23.232;2023-05-10T10:15:38;8.27;;;3.75;;
33696;SDS011;20031;43.416;23.232;2023-05-10T10:18:04;8.32;;;3.92;;
33696;SDS011;20031;43.416;23.232;2023-05-10T10:20:30;5.72;;;3.83;;
33696;SDS011;20031;43.416;23.232;2023-05-10T10:22:56;5.82;;;3.88;;
33696;SDS011;20031;43.416;23.232;2023-05-10T10:25:22;12.43;;;3.85;;
33696;SDS011;20031;43.416;23.232;2023-05-10T10:30:35;30.95;;;6.50;;
33696;SDS011;20031;43.416;23.232;2023-05-10T10:33:22;5.70;;;3.10;;
33696;SDS011;20031;43.416;23.232;2023-05-10T10:35:55;9.48;;;3.17;;
33696;SDS011;20031;43.416;23.232;2023-05-10T10:38:24;8.73;;;3.45;;
33696;SDS011;20031;43.416;23.232;2023-05-10T10:41:01;7.45;;;2.90;;
33696;SDS011;20031;43.416;23.232;2023-05-10T10:43:28;11.00;;;3.45;;
33696;SDS011;20031;43.416;23.232;2023-05-10T10:49:14;7.47;;;2.90;;
33696;SDS011;20031;43.416;23.232;2023-05-10T10:51:38;3.70;;;2.55;;
33696;SDS011;20031;43.416;23.232;2023-05-10T10:54:11;8.38;;;3.97;;
33696;SDS011;20031;43.416;23.232;2023-05-10T10:56:37;5.30;;;2.50;;
33696;SDS011;20031;43.416;23.232;2023-05-10T10:59:02;4.32;;;2.80;;
33696;SDS011;20031;43.416;23.232;2023-05-10T11:01:37;8.18;;;2.90;;
33696;SDS011;20031;43.416;23.232;2023-05-10T11:06:35;6.60;;;2.53;;
33696;SDS011;20031;43.416;23.232;2023-05-10T11:09:07;4.55;;;2.60;;
33696;SDS011;20031;43.416;23.232;2023-05-10T11:11:34;6.00;;;2.40;;
33696;SDS011;20031;43.416;23.232;2023-05-10T11:14:07;7.68;;;4.82;;
33696;SDS011;20031;43.416;23.232;2023-05-10T11:16:50;4.55;;;2.25;;
33696;SDS011;20031;43.416;23.232;2023-05-10T11:19:17;6.80;;;2.70;;
33696;SDS011;20031;43.416;23.232;2023-05-10T11:21:47;5.55;;;2.40;;
33696;SDS011;20031;43.416;23.232;2023-05-10T11:24:20;6.63;;;2.47;;
33696;SDS011;20031;43.416;23.232;2023-05-10T11:26:49;4.10;;;2.20;;
33696;SDS011;20031;43.416;23.232;2023-05-10T11:29:16;7.45;;;2.90;;
33696;SDS011;20031;43.416;23.232;2023-05-10T11:31:44;8.90;;;2.70;;
33696;SDS011;20031;43.416;23.232;2023-05-10T11:34:10;8.70;;;2.78;;
33696;SDS011;20031;43.416;23.232;2023-05-10T11:36:36;12.43;;;2.95;;
33696;SDS011;20031;43.416;23.232;2023-05-10T11:39:02;4.28;;;2.35;;
33696;SDS011;20031;43.416;23.232;2023-05-10T11:41:29;3.85;;;2.40;;
33696;SDS011;20031;43.416;23.232;2023-05-10T11:43:56;9.55;;;2.60;;
33696;SDS011;20031;43.416;23.232;2023-05-10T11:46:23;7.93;;;2.80;;
33696;SDS011;20031;43.416;23.232;2023-05-10T11:48:55;7.03;;;2.03;;
33696;SDS011;20031;43.416;23.232;2023-05-10T11:51:26;6.68;;;1.73;;
33696;SDS011;20031;43.416;23.232;2023-05-10T11:53:55;3.50;;;1.80;;
33696;SDS011;20031;43.416;23.232;2023-05-10T11:56:21;6.72;;;2.80;;
33696;SDS011;20031;43.416;23.232;2023-05-10T11:58:52;7.47;;;4.47;;
33696;SDS011;20031;43.416;23.232;2023-05-10T12:01:20;4.93;;;2.22;;
33696;SDS011;20031;43.416;23.232;2023-05-10T12:03:46;10.88;;;2.70;;
33696;SDS011;20031;43.416;23.232;2023-05-10T12:06:12;7.10;;;2.75;;
33696;SDS011;20031;43.416;23.232;2023-05-10T12:08:43;3.55;;;1.90;;
33696;SDS011;20031;43.416;23.232;2023-05-10T12:11:11;7.00;;;2.65;;
33696;SDS011;20031;43.416;23.232;2023-05-10T12:13:38;6.88;;;2.50;;
33696;SDS011;20031;43.416;23.232;2023-05-10T12:16:22;5.10;;;2.20;;
33696;SDS011;20031;43.416;23.232;2023-05-10T12:18:50;7.97;;;1.88;;
33696;SDS011;20031;43.416;23.232;2023-05-10T12:21:17;4.07;;;1.73;;
33696;SDS011;20031;43.416;23.232;2023-05-10T12:23:45;5.07;;;2.20;;
33696;SDS011;20031;43.416;23.232;2023-05-10T12:26:12;12.55;;;2.60;;
33696;SDS011;20031;43.416;23.232;2023-05-10T12:28:37;4.20;;;2.42;;
33696;SDS011;20031;43.416;23.232;2023-05-10T12:31:06;7.40;;;1.73;;
33696;SDS011;20031;43.416;23.232;2023-05-10T12:33:35;6.93;;;2.20;;
33696;SDS011;20031;43.416;23.232;2023-05-10T12:36:04;5.15;;;1.90;;
33696;SDS011;20031;43.416;23.232;2023-05-10T12:38:37;4.10;;;1.80;;
33696;SDS011;20031;43.416;23.232;2023-05-10T12:41:07;4.88;;;1.75;;
33696;SDS011;20031;43.416;23.232;2023-05-10T12:43:36;3.20;;;1.77;;
33696;SDS011;20031;43.416;23.232;2023-05-10T12:48:32;4.60;;;1.60;;
33696;SDS011;20031;43.416;23.232;2023-05-10T12:50:59;6.88;;;1.60;;
33696;SDS011;20031;43.416;23.232;2023-05-10T12:53:25;2.70;;;1.63;;
33696;SDS011;20031;43.416;23.232;2023-05-10T12:55:50;4.15;;;1.80;;
33696;SDS011;20031;43.416;23.232;2023-05-10T12:58:16;4.70;;;2.00;;
33696;SDS011;20031;43.416;23.232;2023-05-10T13:00:42;5.30;;;2.20;;
33696;SDS011;20031;43.416;23.232;2023-05-10T13:03:08;7.07;;;1.85;;
33696;SDS011;20031;43.416;23.232;2023-05-10T13:05:35;4.40;;;1.85;;
33696;SDS011;20031;43.416;23.232;2023-05-10T13:08:00;8.82;;;1.70;;
33696;SDS011;20031;43.416;23.232;2023-05-10T13:10:26;4.53;;;1.70;;
33696;SDS011;20031;43.416;23.232;2023-05-10T13:12:51;4.43;;;1.88;;
33696;SDS011;20031;43.416;23.232;2023-05-10T13:15:17;5.20;;;1.80;;
33696;SDS011;20031;43.416;23.232;2023-05-10T13:17:43;5.30;;;1.75;;
33696;SDS011;20031;43.416;23.232;2023-05-10T13:20:10;15.95;;;3.47;;
33696;SDS011;20031;43.416;23.232;2023-05-10T13:22:36;6.07;;;2.53;;
33696;SDS011;20031;43.416;23.232;2023-05-10T13:25:01;2.22;;;1.48;;
33696;SDS011;20031;43.416;23.232;2023-05-10T13:27:27;10.50;;;1.67;;
33696;SDS011;20031;43.416;23.232;2023-05-10T13:29:53;9.10;;;2.00;;
33696;SDS011;20031;43.416;23.232;2023-05-10T13:32:19;3.25;;;1.58;;
33696;SDS011;20031;43.416;23.232;2023-05-10T13:34:45;9.02;;;2.10;;
33696;SDS011;20031;43.416;23.232;2023-05-10T13:37:10;13.43;;;4.22;;
33696;SDS011;20031;43.416;23.232;2023-05-10T13:39:36;5.65;;;2.83;;
33696;SDS011;20031;43.416;23.232;2023-05-10T13:42:02;8.60;;;1.70;;
33696;SDS011;20031;43.416;23.232;2023-05-10T13:44:29;5.80;;;1.73;;
33696;SDS011;20031;43.416;23.232;2023-05-10T13:46:55;5.50;;;1.70;;
33696;SDS011;20031;43.416;23.232;2023-05-10T13:49:21;5.55;;;1.75;;
33696;SDS011;20031;43.416;23.232;2023-05-10T13:51:47;2.35;;;1.75;;
33696;SDS011;20031;43.416;23.232;2023-05-10T13:54:12;4.43;;;1.85;;
33696;SDS011;20031;43.416;23.232;2023-05-10T13:56:38;5.70;;;1.75;;
33696;SDS011;20031;43.416;23.232;2023-05-10T13:59:03;6.78;;;1.95;;
33696;SDS011;20031;43.416;23.232;2023-05-10T14:01:29;3.25;;;1.80;;
33696;SDS011;20031;43.416;23.232;2023-05-10T14:03:55;4.05;;;1.70;;
33696;SDS011;20031;43.416;23.232;2023-05-10T14:06:20;11.20;;;2.00;;
33696;SDS011;20031;43.416;23.232;2023-05-10T14:08:46;5.35;;;2.08;;
33696;SDS011;20031;43.416;23.232;2023-05-10T14:11:12;8.52;;;2.50;;
33696;SDS011;20031;43.416;23.232;2023-05-10T14:13:37;8.25;;;2.22;;
33696;SDS011;20031;43.416;23.232;2023-05-10T14:16:03;6.72;;;2.30;;
33696;SDS011;20031;43.416;23.232;2023-05-10T14:18:29;7.70;;;2.10;;
33696;SDS011;20031;43.416;23.232;2023-05-10T14:20:54;6.57;;;2.00;;
33696;SDS011;20031;43.416;23.232;2023-05-10T14:23:21;8.05;;;2.17;;
33696;SDS011;20031;43.416;23.232;2023-05-10T14:25:51;8.82;;;1.92;;
33696;SDS011;20031;43.416;23.232;2023-05-10T14:28:17;6.95;;;1.60;;
33696;SDS011;20031;43.416;23.232;2023-05-10T14:30:43;8.63;;;1.90;;
33696;SDS011;20031;43.416;23.232;2023-05-10T14:33:09;5.18;;;2.03;;
33696;SDS011;20031;43.416;23.232;2023-05-10T14:35:34;5.70;;;2.03;;
33696;SDS011;20031;43.416;23.232;2023-05-10T14:38:01;5.28;;;2.10;;
33696;SDS011;20031;43.416;23.232;2023-05-10T14:40:28;3.72;;;1.90;;
33696;SDS011;20031;43.416;23.232;2023-05-10T14:42:54;5.25;;;1.80;;
33696;SDS011;20031;43.416;23.232;2023-05-10T14:45:20;4.85;;;2.00;;
33696;SDS011;20031;43.416;23.232;2023-05-10T14:47:46;5.13;;;2.05;;
33696;SDS011;20031;43.416;23.232;2023-05-10T14:50:11;7.00;;;2.20;;
33696;SDS011;20031;43.416;23.232;2023-05-10T14:55:58;6.95;;;2.83;;